createdAt,value
2018-09-08T00:00:06.723Z,11.63
2018-09-08T00:02:40.990Z,10.50
2018-09-08T00:05:16.221Z,10.87
2018-09-08T00:07:50.915Z,10.23
2018-09-08T00:10:25.347Z,10.77
2018-09-08T00:12:59.689Z,11.20
2018-09-08T00:15:39.551Z,11.23
2018-09-08T00:18:19.284Z,10.20
2018-09-08T00:20:58.883Z,11.03
2018-09-08T00:23:38.999Z,10.43
2018-09-08T00:26:18.985Z,10.53
2018-09-08T00:29:31.104Z,10.77
2018-09-08T00:32:09.242Z,11.03
2018-09-08T00:34:43.600Z,10.17
2018-09-08T00:37:18.229Z,10.10
2018-09-08T00:39:52.764Z,11.00
2018-09-08T00:42:27.436Z,11.53
2018-09-08T00:45:01.855Z,11.10
2018-09-08T00:47:36.612Z,11.27
2018-09-08T00:50:11.288Z,10.93
2018-09-08T00:52:45.724Z,12.17
2018-09-08T00:55:20.740Z,10.93
2018-09-08T00:57:55.121Z,10.50
2018-09-08T01:00:29.585Z,11.13
2018-09-08T01:03:04.002Z,10.97
2018-09-08T01:05:38.490Z,10.43
2018-09-08T01:08:12.871Z,10.70
2018-09-08T01:10:47.315Z,10.10
2018-09-08T01:13:21.745Z,10.37
2018-09-08T01:15:56.305Z,9.83
2018-09-08T01:18:34.640Z,10.10
2018-09-08T01:21:09.667Z,9.63
2018-09-08T01:23:49.504Z,10.00
2018-09-08T01:26:23.871Z,9.10
2018-09-08T01:28:58.375Z,8.90
2018-09-08T01:31:32.827Z,8.50
2018-09-08T01:34:07.256Z,8.77
2018-09-08T01:36:41.520Z,9.30
2018-09-08T01:39:15.804Z,9.97
2018-09-08T01:41:50.414Z,10.37
2018-09-08T01:44:24.825Z,9.83
2018-09-08T01:46:59.179Z,10.50
2018-09-08T01:49:33.738Z,10.10
2018-09-08T01:52:08.636Z,9.03
2018-09-08T01:54:43.313Z,9.47
2018-09-08T01:57:17.633Z,9.10
2018-09-08T01:59:52.348Z,9.17
2018-09-08T02:02:26.791Z,9.00
2018-09-08T02:05:01.056Z,8.13
2018-09-08T02:07:35.676Z,8.30
2018-09-08T02:10:10.235Z,8.40
2018-09-08T02:12:44.525Z,8.47
2018-09-08T02:15:18.798Z,8.17
2018-09-08T02:17:53.448Z,7.87
2018-09-08T02:20:28.049Z,8.83
2018-09-08T02:23:02.732Z,8.10
2018-09-08T02:25:37.791Z,8.13
2018-09-08T02:28:12.618Z,8.70
2018-09-08T02:30:47.053Z,8.60
2018-09-08T02:33:21.384Z,8.03
2018-09-08T02:35:56.176Z,8.63
2018-09-08T02:38:30.983Z,8.10
2018-09-08T02:41:06.123Z,9.03
2018-09-08T02:43:40.775Z,8.73
2018-09-08T02:46:15.330Z,8.73
2018-09-08T02:48:49.656Z,8.17
2018-09-08T02:51:23.059Z,8.33
2018-09-08T02:53:56.541Z,7.87
2018-09-08T02:56:29.888Z,9.33
2018-09-08T02:59:03.420Z,8.03
2018-09-08T03:01:36.871Z,8.27
2018-09-08T03:04:10.424Z,8.97
2018-09-08T03:06:44.790Z,8.70
2018-09-08T03:09:18.215Z,8.97
2018-09-08T03:11:51.760Z,9.50
2018-09-08T03:14:25.201Z,9.17
2018-09-08T03:16:58.567Z,8.70
2018-09-08T03:19:32.278Z,9.47
2018-09-08T03:22:05.603Z,8.47
2018-09-08T03:24:38.941Z,9.27
2018-09-08T03:27:12.413Z,8.93
2018-09-08T03:29:45.683Z,9.60
2018-09-08T03:32:19.041Z,9.07
2018-09-08T03:34:52.388Z,9.73
2018-09-08T03:37:25.823Z,9.00
2018-09-08T03:39:59.200Z,8.93
2018-09-08T03:42:32.716Z,9.17
2018-09-08T03:45:06.155Z,8.73
2018-09-08T03:47:39.672Z,9.13
2018-09-08T03:50:13.025Z,8.67
2018-09-08T03:52:46.539Z,8.47
2018-09-08T03:55:20.114Z,8.40
2018-09-08T03:57:53.549Z,8.27
2018-09-08T04:00:26.840Z,8.10
2018-09-08T04:03:01.414Z,7.30
2018-09-08T04:05:35.878Z,7.57
2018-09-08T04:08:10.612Z,7.80
2018-09-08T04:10:45.407Z,8.03
2018-09-08T04:13:20.130Z,8.80
2018-09-08T04:15:54.719Z,8.20
2018-09-08T04:18:29.132Z,7.83
2018-09-08T04:21:03.999Z,7.93
2018-09-08T04:23:38.315Z,7.67
2018-09-08T04:26:12.653Z,7.97
2018-09-08T04:28:47.050Z,8.00
2018-09-08T04:31:21.708Z,7.73
2018-09-08T04:33:56.347Z,7.33
2018-09-08T04:36:30.743Z,6.67
2018-09-08T04:39:08.155Z,7.53
2018-09-08T04:41:42.476Z,7.17
2018-09-08T04:44:17.418Z,7.10
2018-09-08T04:46:51.772Z,6.83
2018-09-08T04:49:26.302Z,6.63
2018-09-08T04:52:01.236Z,6.70
2018-09-08T04:54:35.541Z,6.03
2018-09-08T04:57:10.019Z,6.50
2018-09-08T04:59:44.653Z,5.83
2018-09-08T05:02:19.191Z,6.20
2018-09-08T05:04:53.820Z,6.20
2018-09-08T05:07:28.627Z,6.47
2018-09-08T05:10:03.495Z,6.20
2018-09-08T05:12:37.916Z,6.30
2018-09-08T05:15:12.648Z,6.80
2018-09-08T05:17:47.156Z,6.83
2018-09-08T05:20:22.247Z,6.63
2018-09-08T05:22:57.072Z,7.07
2018-09-08T05:25:31.752Z,6.80
2018-09-08T05:28:06.266Z,6.77
2018-09-08T05:30:40.772Z,7.53
2018-09-08T05:33:15.365Z,7.00
2018-09-08T05:35:50.063Z,7.47
2018-09-08T05:38:25.212Z,7.60
2018-09-08T05:40:59.702Z,8.03
2018-09-08T05:43:34.485Z,6.20
2018-09-08T05:46:08.785Z,5.67
2018-09-08T05:48:43.218Z,7.33
2018-09-08T05:51:17.964Z,8.03
2018-09-08T05:53:52.229Z,7.40
2018-09-08T05:56:26.705Z,7.60
2018-09-08T05:59:01.155Z,7.80
2018-09-08T06:01:36.033Z,7.70
2018-09-08T06:04:10.627Z,7.53
2018-09-08T06:06:45.329Z,8.50
2018-09-08T06:09:20.052Z,9.37
2018-09-08T06:11:54.503Z,9.23
2018-09-08T06:14:29.427Z,9.70
2018-09-08T06:17:04.255Z,10.77
2018-09-08T06:19:38.596Z,10.70
2018-09-08T06:22:13.487Z,10.17
2018-09-08T06:24:48.101Z,10.37
2018-09-08T06:27:22.654Z,11.53
2018-09-08T06:29:57.032Z,10.53
2018-09-08T06:32:31.403Z,10.00
2018-09-08T06:35:06.044Z,10.03
2018-09-08T06:37:40.857Z,9.30
2018-09-08T06:40:15.443Z,9.33
2018-09-08T06:42:50.077Z,9.50
2018-09-08T06:45:24.600Z,8.63
2018-09-08T06:47:59.048Z,9.10
2018-09-08T06:50:33.491Z,8.13
2018-09-08T06:53:07.823Z,9.13
2018-09-08T06:55:42.176Z,7.63
2018-09-08T06:58:16.605Z,7.87
2018-09-08T07:00:51.037Z,6.30
2018-09-08T07:03:25.487Z,6.50
2018-09-08T07:06:00.083Z,7.30
2018-09-08T07:08:35.095Z,6.70
2018-09-08T07:11:09.773Z,7.27
2018-09-08T07:13:45.141Z,5.43
2018-09-08T07:16:19.655Z,5.90
2018-09-08T07:18:54.365Z,6.17
2018-09-08T07:21:29.950Z,6.20
2018-09-08T07:24:05.023Z,5.93
2018-09-08T07:26:39.713Z,5.97
2018-09-08T07:29:14.169Z,5.13
2018-09-08T07:31:48.615Z,5.40
2018-09-08T07:34:23.026Z,4.93
2018-09-08T07:36:57.832Z,5.00
2018-09-08T07:39:32.564Z,5.27
2018-09-08T07:42:07.016Z,5.00
2018-09-08T07:44:41.764Z,4.90
2018-09-08T07:47:16.308Z,4.63
2018-09-08T07:49:50.779Z,5.40
2018-09-08T07:52:25.484Z,5.30
2018-09-08T07:54:59.944Z,5.00
2018-09-08T07:57:35.217Z,5.27
2018-09-08T08:00:10.167Z,5.00
2018-09-08T08:02:44.988Z,5.30
2018-09-08T08:05:19.283Z,4.97
2018-09-08T08:07:53.709Z,4.90
2018-09-08T08:10:27.968Z,4.50
2018-09-08T08:13:02.457Z,4.40
2018-09-08T08:15:37.052Z,5.37
2018-09-08T08:18:11.396Z,5.30
2018-09-08T08:20:45.659Z,4.80
2018-09-08T08:23:20.354Z,4.20
2018-09-08T08:25:55.006Z,4.33
2018-09-08T08:28:29.740Z,4.47
2018-09-08T08:31:04.639Z,4.47
2018-09-08T08:33:39.524Z,6.43
2018-09-08T08:36:13.819Z,4.17
2018-09-08T08:38:48.294Z,3.87
2018-09-08T08:41:23.300Z,3.50
2018-09-08T08:43:58.036Z,3.10
2018-09-08T08:46:32.896Z,3.97
2018-09-08T08:49:07.327Z,3.57
2018-09-08T08:51:53.368Z,3.60
2018-09-08T08:54:33.335Z,3.70
2018-09-08T08:57:08.140Z,4.03
2018-09-08T08:59:42.867Z,3.50
2018-09-08T09:02:17.226Z,3.77
2018-09-08T09:04:51.654Z,3.47
2018-09-08T09:07:26.688Z,3.50
2018-09-08T09:10:01.103Z,4.13
2018-09-08T09:12:36.015Z,4.20
2018-09-08T09:15:10.571Z,4.27
2018-09-08T09:17:45.288Z,4.37
2018-09-08T09:20:30.988Z,4.60
2018-09-08T09:24:17.715Z,4.13
2018-09-08T09:26:51.993Z,4.27
2018-09-08T09:29:26.307Z,3.60
2018-09-08T09:32:01.118Z,4.00
2018-09-08T09:34:35.575Z,4.13
2018-09-08T09:37:14.975Z,4.20
2018-09-08T09:39:52.874Z,3.93
2018-09-08T09:42:28.037Z,4.90
2018-09-08T09:45:04.856Z,4.00
2018-09-08T09:47:39.621Z,3.90
2018-09-08T09:50:14.980Z,4.30
2018-09-08T09:52:49.664Z,4.10
2018-09-08T09:55:24.575Z,5.00
2018-09-08T09:57:58.995Z,4.67
2018-09-08T10:00:38.956Z,4.60
2018-09-08T10:03:13.504Z,3.93
2018-09-08T10:05:48.330Z,4.27
2018-09-08T10:08:22.979Z,4.20
2018-09-08T10:10:57.444Z,3.90
2018-09-08T10:13:38.395Z,3.50
2018-09-08T10:16:12.996Z,4.47
2018-09-08T10:18:48.235Z,4.43
2018-09-08T10:21:22.768Z,4.40
2018-09-08T10:24:05.156Z,4.70
2018-09-08T10:26:32.307Z,4.10
2018-09-08T10:29:06.724Z,3.90
2018-09-08T10:31:41.191Z,3.53
2018-09-08T10:34:15.845Z,4.03
2018-09-08T10:36:50.712Z,4.30
2018-09-08T10:39:25.647Z,3.73
2018-09-08T10:44:39.333Z,3.53
2018-09-08T10:47:14.121Z,4.80
2018-09-08T10:49:48.839Z,3.50
2018-09-08T10:52:33.636Z,3.77
2018-09-08T10:55:10.165Z,3.60
2018-09-08T10:57:47.572Z,4.43
2018-09-08T11:00:25.858Z,4.50
2018-09-08T11:03:00.772Z,4.73
2018-09-08T11:05:35.956Z,4.30
2018-09-08T11:08:11.125Z,4.40
2018-09-08T11:10:48.250Z,4.50
2018-09-08T11:13:23.308Z,4.30
2018-09-08T11:16:01.257Z,4.57
2018-09-08T11:18:35.801Z,4.60
2018-09-08T11:21:10.328Z,4.57
2018-09-08T11:23:44.880Z,5.13
2018-09-08T11:26:19.219Z,4.00
2018-09-08T11:28:55.483Z,3.97
2018-09-08T11:31:30.144Z,3.77
2018-09-08T11:34:05.212Z,4.10
2018-09-08T11:36:39.709Z,3.97
2018-09-08T11:39:14.169Z,4.17
2018-09-08T11:41:48.758Z,4.07
2018-09-08T11:44:23.138Z,4.00
2018-09-08T11:46:58.451Z,4.30
2018-09-08T11:49:32.936Z,3.63
2018-09-08T11:52:07.843Z,3.80
2018-09-08T11:54:42.404Z,3.60
2018-09-08T11:57:17.027Z,3.93
2018-09-08T11:59:51.603Z,4.13
2018-09-08T12:02:26.959Z,3.70
2018-09-08T12:05:01.756Z,3.23
2018-09-08T12:07:37.268Z,3.90
2018-09-08T12:10:11.720Z,3.60
2018-09-08T12:12:46.408Z,3.40
2018-09-08T12:15:20.813Z,3.73
2018-09-08T12:17:55.211Z,3.70
2018-09-08T12:20:29.553Z,3.50
2018-09-08T12:23:04.741Z,3.63
2018-09-08T12:25:39.258Z,3.87
2018-09-08T12:28:14.225Z,3.60
2018-09-08T12:30:57.738Z,3.80
2018-09-08T12:33:38.318Z,3.50
2018-09-08T12:36:12.909Z,4.00
2018-09-08T12:38:51.090Z,3.53
2018-09-08T12:41:28.795Z,3.47
2018-09-08T12:44:11.921Z,3.60
2018-09-08T12:46:49.150Z,3.63
2018-09-08T12:49:27.843Z,3.53
2018-09-08T12:52:10.499Z,4.00
2018-09-08T12:54:48.062Z,3.87
2018-09-08T12:57:29.306Z,3.30
2018-09-08T13:00:04.109Z,3.03
2018-09-08T13:02:38.544Z,3.50
2018-09-08T13:05:13.559Z,3.23
2018-09-08T13:07:48.494Z,4.10
2018-09-08T13:10:23.242Z,3.13
2018-09-08T13:12:57.727Z,3.27
2018-09-08T13:15:32.244Z,3.40
2018-09-08T13:18:07.304Z,3.53
2018-09-08T13:20:41.892Z,3.10
2018-09-08T13:23:16.336Z,3.00
2018-09-08T13:25:53.009Z,3.60
2018-09-08T13:28:27.659Z,3.20
2018-09-08T13:31:02.173Z,3.10
2018-09-08T13:33:36.769Z,3.80
2018-09-08T13:36:12.795Z,3.40
2018-09-08T13:38:54.207Z,3.27
2018-09-08T13:41:31.229Z,3.30
2018-09-08T13:44:08.734Z,3.43
2018-09-08T13:46:44.733Z,3.47
2018-09-08T13:49:25.137Z,3.33
2018-09-08T13:52:02.423Z,3.40
2018-09-08T13:54:37.072Z,3.37
2018-09-08T13:57:11.577Z,3.80
2018-09-08T13:59:47.961Z,3.25
2018-09-08T14:02:22.596Z,3.27
2018-09-08T14:04:57.251Z,3.20
2018-09-08T14:07:32.643Z,3.00
2018-09-08T14:10:13.457Z,3.70
2018-09-08T14:12:47.855Z,3.10
2018-09-08T14:15:22.496Z,3.20
2018-09-08T14:17:57.127Z,3.23
2018-09-08T14:20:31.957Z,3.30
2018-09-08T14:23:06.615Z,3.13
2018-09-08T14:25:41.098Z,3.47
2018-09-08T14:28:16.374Z,3.00
2018-09-08T14:30:50.871Z,3.20
2018-09-08T14:33:25.396Z,3.20
2018-09-08T14:35:59.703Z,3.30
2018-09-08T14:38:34.138Z,3.10
2018-09-08T14:41:14.093Z,3.10
2018-09-08T14:43:48.500Z,3.10
2018-09-08T14:46:22.951Z,3.50
2018-09-08T14:48:57.306Z,3.33
2018-09-08T14:51:31.788Z,3.20
2018-09-08T14:54:06.561Z,3.30
2018-09-08T14:56:41.075Z,3.33
2018-09-08T14:59:16.156Z,3.07
2018-09-08T15:01:50.433Z,3.60
2018-09-08T15:04:25.066Z,3.47
2018-09-08T15:06:59.467Z,3.10
2018-09-08T15:09:33.962Z,2.90
2018-09-08T15:12:09.214Z,3.10
2018-09-08T15:14:43.974Z,2.90
2018-09-08T15:17:18.435Z,3.37
2018-09-08T15:19:53.069Z,3.03
2018-09-08T15:22:27.743Z,2.83
2018-09-08T15:25:02.971Z,2.70
2018-09-08T15:27:37.519Z,3.07
2018-09-08T15:30:12.069Z,3.03
2018-09-08T15:32:46.626Z,2.97
2018-09-08T15:35:21.373Z,2.80
2018-09-08T15:37:55.852Z,3.10
2018-09-08T15:40:30.305Z,3.43
2018-09-08T15:46:04.801Z,3.00
2018-09-08T15:48:40.129Z,3.20
2018-09-08T15:51:14.598Z,3.00
2018-09-08T15:53:50.180Z,3.27
2018-09-08T15:56:25.514Z,3.10
2018-09-08T15:59:22.834Z,3.07
2018-09-08T16:02:08.924Z,2.80
2018-09-08T16:04:59.568Z,3.07
2018-09-08T16:07:34.796Z,3.10
2018-09-08T16:10:09.311Z,3.07
2018-09-08T16:12:44.114Z,2.70
2018-09-08T16:15:19.164Z,3.03
2018-09-08T16:17:53.556Z,3.20
2018-09-08T16:20:28.804Z,3.20
2018-09-08T16:23:16.343Z,3.60
2018-09-08T16:25:50.941Z,3.30
2018-09-08T16:28:25.363Z,3.30
2018-09-08T16:30:59.781Z,3.20
2018-09-08T16:33:34.092Z,3.50
2018-09-08T16:36:08.800Z,3.70
2018-09-08T16:38:43.286Z,3.10
2018-09-08T16:41:17.924Z,4.67
2018-09-08T16:43:52.728Z,6.23
2018-09-08T16:46:27.076Z,24.73
2018-09-08T16:49:01.512Z,13.43
2018-09-08T16:51:35.836Z,15.10
2018-09-08T16:54:10.236Z,14.47
2018-09-08T16:56:44.671Z,9.03
2018-09-08T16:59:19.097Z,5.13
2018-09-08T17:01:53.911Z,3.70
2018-09-08T17:04:28.592Z,4.70
2018-09-08T17:07:03.084Z,4.00
2018-09-08T17:09:37.504Z,3.83
2018-09-08T17:12:12.132Z,4.20
2018-09-08T17:14:46.666Z,3.67
2018-09-08T17:17:21.095Z,3.87
2018-09-08T17:19:55.543Z,3.70
2018-09-08T17:22:30.348Z,3.70
2018-09-08T17:25:04.695Z,3.60
2018-09-08T17:27:39.029Z,3.63
2018-09-08T17:30:13.309Z,3.83
2018-09-08T17:32:47.721Z,3.83
2018-09-08T17:35:22.392Z,4.30
2018-09-08T17:37:57.160Z,4.67
2018-09-08T17:40:32.116Z,4.50
2018-09-08T17:43:06.529Z,4.50
2018-09-08T17:45:40.933Z,4.30
2018-09-08T17:48:15.411Z,4.83
2018-09-08T17:50:49.762Z,4.00
2018-09-08T17:55:55.723Z,4.40
2018-09-08T17:58:30.286Z,4.10
2018-09-08T18:01:06.497Z,4.17
2018-09-08T18:03:41.005Z,4.57
2018-09-08T18:06:15.336Z,4.60
2018-09-08T18:08:50.203Z,4.57
2018-09-08T18:11:24.897Z,4.23
2018-09-08T18:13:59.972Z,4.70
2018-09-08T18:16:34.429Z,4.37
2018-09-08T18:19:09.488Z,4.33
2018-09-08T18:21:44.244Z,4.77
2018-09-08T18:24:18.868Z,4.63
2018-09-08T18:26:53.489Z,4.60
2018-09-08T18:29:28.692Z,5.03
2018-09-08T18:32:03.573Z,4.80
2018-09-08T18:34:37.983Z,4.37
2018-09-08T18:37:12.268Z,4.80
2018-09-08T18:39:46.528Z,4.13
2018-09-08T18:42:21.000Z,4.23
2018-09-08T18:44:55.633Z,4.83
2018-09-08T18:47:29.958Z,5.20
2018-09-08T18:50:04.923Z,4.90
2018-09-08T18:52:39.828Z,4.77
2018-09-08T18:55:14.888Z,5.00
2018-09-08T18:57:49.318Z,4.97
2018-09-08T19:00:23.701Z,5.10
2018-09-08T19:02:57.998Z,5.20
2018-09-08T19:05:32.616Z,5.13
2018-09-08T19:08:07.266Z,5.57
2018-09-08T19:10:41.660Z,5.63
2018-09-08T19:13:16.088Z,5.53
2018-09-08T19:15:50.435Z,6.10
2018-09-08T19:18:24.779Z,5.57
2018-09-08T19:20:59.119Z,5.90
2018-09-08T19:23:33.417Z,6.23
2018-09-08T19:26:08.194Z,5.90
2018-09-08T19:28:42.700Z,5.63
2018-09-08T19:31:17.107Z,6.43
2018-09-08T19:33:51.524Z,6.53
2018-09-08T19:36:26.044Z,7.67
2018-09-08T19:39:00.530Z,9.07
2018-09-08T19:41:34.957Z,8.60
2018-09-08T19:44:09.414Z,8.90
2018-09-08T19:46:49.296Z,9.07
2018-09-08T19:49:23.773Z,8.23
2018-09-08T19:51:58.251Z,8.90
2018-09-08T19:54:33.475Z,9.17
2018-09-08T19:57:13.316Z,9.10
2018-09-08T19:59:47.648Z,9.00
2018-09-08T20:02:22.292Z,9.47
2018-09-08T20:04:56.992Z,8.77
2018-09-08T20:07:31.527Z,8.17
2018-09-08T20:10:06.240Z,9.23
2018-09-08T20:12:40.637Z,9.57
2018-09-08T20:15:15.161Z,9.37
2018-09-08T20:17:49.528Z,9.80
2018-09-08T20:20:24.228Z,10.00
2018-09-08T20:22:58.617Z,10.27
2018-09-08T20:25:33.296Z,9.40
2018-09-08T20:28:07.643Z,9.60
2018-09-08T20:30:42.139Z,9.60
2018-09-08T20:33:16.746Z,9.20
2018-09-08T20:35:52.340Z,9.50
2018-09-08T20:38:28.157Z,9.47
2018-09-08T20:41:03.068Z,10.83
2018-09-08T20:43:37.559Z,10.00
2018-09-08T20:46:12.729Z,9.83
2018-09-08T20:48:47.196Z,9.87
2018-09-08T20:51:21.879Z,9.70
2018-09-08T20:53:56.771Z,10.60
2018-09-08T20:56:31.567Z,9.77
2018-09-08T20:59:06.512Z,9.97
2018-09-08T21:01:40.889Z,9.40
2018-09-08T21:04:15.828Z,9.73
2018-09-08T21:06:50.232Z,9.70
2018-09-08T21:09:24.548Z,9.60
2018-09-08T21:11:59.008Z,9.37
2018-09-08T21:14:33.508Z,9.60
2018-09-08T21:17:08.337Z,9.40
2018-09-08T21:19:43.464Z,8.33
2018-09-08T21:22:17.787Z,7.83
2018-09-08T21:24:52.277Z,9.00
2018-09-08T21:27:27.065Z,7.97
2018-09-08T21:30:01.389Z,8.63
2018-09-08T21:32:35.784Z,8.23
2018-09-08T21:35:10.060Z,8.90
2018-09-08T21:37:44.724Z,8.80
2018-09-08T21:40:19.274Z,8.10
2018-09-08T21:42:53.611Z,9.40
2018-09-08T21:45:28.005Z,9.07
2018-09-08T21:48:02.511Z,8.30
2018-09-08T21:50:37.422Z,8.53
2018-09-08T21:53:11.802Z,8.70
2018-09-08T21:55:46.576Z,8.67
2018-09-08T21:58:21.045Z,8.80
2018-09-08T22:00:55.420Z,8.27
2018-09-08T22:03:30.069Z,8.40
2018-09-08T22:06:05.104Z,8.03
2018-09-08T22:08:40.085Z,8.30
2018-09-08T22:11:15.063Z,7.93
2018-09-08T22:13:49.798Z,9.43
2018-09-08T22:16:24.199Z,9.90
2018-09-08T22:18:59.079Z,9.00
2018-09-08T22:21:33.400Z,8.40
2018-09-08T22:24:08.219Z,8.37
2018-09-08T22:26:42.905Z,8.97
2018-09-08T22:29:17.351Z,8.77
2018-09-08T22:31:52.139Z,8.93
2018-09-08T22:34:26.632Z,8.30
2018-09-08T22:37:01.275Z,7.73
2018-09-08T22:39:35.984Z,8.70
2018-09-08T22:42:10.863Z,7.73
2018-09-08T22:44:45.235Z,7.80
2018-09-08T22:47:19.662Z,7.47
2018-09-08T22:49:54.344Z,8.83
2018-09-08T22:52:28.776Z,8.57
2018-09-08T22:55:03.276Z,8.30
2018-09-08T22:57:38.380Z,7.97
2018-09-08T23:00:13.153Z,8.13
2018-09-08T23:02:47.688Z,7.90
2018-09-08T23:05:22.203Z,8.30
2018-09-08T23:07:56.635Z,7.93
2018-09-08T23:10:31.321Z,8.10
2018-09-08T23:13:05.888Z,7.73
2018-09-08T23:15:40.420Z,7.47
2018-09-08T23:18:15.176Z,7.50
2018-09-08T23:20:49.551Z,7.90
2018-09-08T23:23:24.016Z,8.00
2018-09-08T23:25:58.816Z,7.80
2018-09-08T23:28:33.329Z,7.77
2018-09-08T23:31:07.967Z,8.00
2018-09-08T23:33:42.764Z,8.30
2018-09-08T23:36:17.204Z,7.83
2018-09-08T23:38:51.737Z,8.63
2018-09-08T23:41:26.185Z,8.40
2018-09-08T23:44:00.648Z,8.47
2018-09-08T23:46:34.944Z,8.30
2018-09-08T23:49:09.739Z,8.43
2018-09-08T23:51:44.200Z,8.90
2018-09-08T23:54:18.579Z,7.67
2018-09-08T23:56:53.476Z,8.70
2018-09-08T23:59:28.151Z,8.30
